sensor_id;sensor_type;location;lat;lon;timestamp;P1;durP1;ratioP1;P2;durP2;ratioP2
11598;SDS011;5855;48.840;9.188;2023-06-14T00:00:08;6.93;;;4.32;;
11598;SDS011;5855;48.840;9.188;2023-06-14T00:02:37;5.47;;;3.75;;
11598;SDS011;5855;48.840;9.188;2023-06-14T00:05:05;4.25;;;3.85;;
11598;SDS011;5855;48.840;9.188;2023-06-14T00:07:35;6.78;;;4.40;;
11598;SDS011;5855;48.840;9.188;2023-06-14T00:10:07;5.65;;;4.45;;
11598;SDS011;5855;48.840;9.188;2023-06-14T00:12:36;5.15;;;4.47;;
11598;SDS011;5855;48.840;9.188;2023-06-14T00:15:04;4.82;;;4.22;;
11598;SDS011;5855;48.840;9.188;2023-06-14T00:17:32;5.75;;;4.05;;
11598;SDS011;5855;48.840;9.188;2023-06-14T00:19:59;5.70;;;4.40;;
11598;SDS011;5855;48.840;9.188;2023-06-14T00:22:28;5.03;;;4.03;;
11598;SDS011;5855;48.840;9.188;2023-06-14T00:24:56;5.78;;;4.03;;
11598;SDS011;5855;48.840;9.188;2023-06-14T00:27:22;6.25;;;4.70;;
11598;SDS011;5855;48.840;9.188;2023-06-14T00:29:51;5.38;;;4.30;;
11598;SDS011;5855;48.840;9.188;2023-06-14T00:32:18;7.88;;;4.50;;
11598;SDS011;5855;48.840;9.188;2023-06-14T00:34:49;9.20;;;4.43;;
11598;SDS011;5855;48.840;9.188;2023-06-14T00:37:16;4.60;;;3.97;;
11598;SDS011;5855;48.840;9.188;2023-06-14T00:39:43;7.25;;;4.38;;
11598;SDS011;5855;48.840;9.188;2023-06-14T00:42:09;6.35;;;3.90;;
11598;SDS011;5855;48.840;9.188;2023-06-14T00:44:36;5.35;;;4.45;;
11598;SDS011;5855;48.840;9.188;2023-06-14T00:47:05;4.82;;;4.32;;
11598;SDS011;5855;48.840;9.188;2023-06-14T00:49:32;6.38;;;4.40;;
11598;SDS011;5855;48.840;9.188;2023-06-14T00:52:00;6.38;;;4.55;;
11598;SDS011;5855;48.840;9.188;2023-06-14T00:54:27;6.60;;;4.45;;
11598;SDS011;5855;48.840;9.188;2023-06-14T00:56:54;5.90;;;4.28;;
11598;SDS011;5855;48.840;9.188;2023-06-14T00:59:21;6.82;;;4.53;;
11598;SDS011;5855;48.840;9.188;2023-06-14T01:01:47;5.50;;;4.30;;
11598;SDS011;5855;48.840;9.188;2023-06-14T01:04:16;6.15;;;4.72;;
11598;SDS011;5855;48.840;9.188;2023-06-14T01:06:45;5.63;;;4.40;;
11598;SDS011;5855;48.840;9.188;2023-06-14T01:09:23;5.03;;;4.38;;
11598;SDS011;5855;48.840;9.188;2023-06-14T01:11:57;4.68;;;4.28;;
11598;SDS011;5855;48.840;9.188;2023-06-14T01:14:28;5.75;;;4.38;;
11598;SDS011;5855;48.840;9.188;2023-06-14T01:16:57;7.07;;;4.60;;
11598;SDS011;5855;48.840;9.188;2023-06-14T01:19:27;5.32;;;4.03;;
11598;SDS011;5855;48.840;9.188;2023-06-14T01:21:55;5.75;;;4.20;;
11598;SDS011;5855;48.840;9.188;2023-06-14T01:24:23;5.15;;;4.20;;
11598;SDS011;5855;48.840;9.188;2023-06-14T01:26:57;7.55;;;4.55;;
11598;SDS011;5855;48.840;9.188;2023-06-14T01:29:25;5.13;;;4.05;;
11598;SDS011;5855;48.840;9.188;2023-06-14T01:31:57;5.45;;;4.22;;
11598;SDS011;5855;48.840;9.188;2023-06-14T01:34:25;5.80;;;4.35;;
11598;SDS011;5855;48.840;9.188;2023-06-14T01:36:52;7.88;;;4.18;;
11598;SDS011;5855;48.840;9.188;2023-06-14T01:39:20;6.13;;;4.88;;
11598;SDS011;5855;48.840;9.188;2023-06-14T01:41:49;6.75;;;4.10;;
11598;SDS011;5855;48.840;9.188;2023-06-14T01:44:18;6.72;;;4.65;;
11598;SDS011;5855;48.840;9.188;2023-06-14T01:46:46;5.82;;;4.68;;
11598;SDS011;5855;48.840;9.188;2023-06-14T01:49:13;7.68;;;4.65;;
11598;SDS011;5855;48.840;9.188;2023-06-14T01:51:40;9.65;;;4.53;;
11598;SDS011;5855;48.840;9.188;2023-06-14T01:54:07;5.32;;;4.30;;
11598;SDS011;5855;48.840;9.188;2023-06-14T01:56:34;4.75;;;4.30;;
11598;SDS011;5855;48.840;9.188;2023-06-14T01:59:02;4.88;;;4.32;;
11598;SDS011;5855;48.840;9.188;2023-06-14T02:01:29;7.13;;;4.35;;
11598;SDS011;5855;48.840;9.188;2023-06-14T02:03:55;5.43;;;4.63;;
11598;SDS011;5855;48.840;9.188;2023-06-14T02:06:22;5.65;;;4.15;;
11598;SDS011;5855;48.840;9.188;2023-06-14T02:08:52;4.97;;;4.20;;
11598;SDS011;5855;48.840;9.188;2023-06-14T02:11:19;6.18;;;4.60;;
11598;SDS011;5855;48.840;9.188;2023-06-14T02:13:48;6.93;;;4.47;;
11598;SDS011;5855;48.840;9.188;2023-06-14T02:16:17;7.32;;;4.75;;
11598;SDS011;5855;48.840;9.188;2023-06-14T02:18:43;5.40;;;4.35;;
11598;SDS011;5855;48.840;9.188;2023-06-14T02:21:10;5.07;;;4.28;;
11598;SDS011;5855;48.840;9.188;2023-06-14T02:23:37;5.53;;;4.60;;
11598;SDS011;5855;48.840;9.188;2023-06-14T02:26:05;9.35;;;4.15;;
11598;SDS011;5855;48.840;9.188;2023-06-14T02:28:31;6.40;;;4.45;;
11598;SDS011;5855;48.840;9.188;2023-06-14T02:30:58;4.82;;;3.90;;
11598;SDS011;5855;48.840;9.188;2023-06-14T02:33:27;5.53;;;3.90;;
11598;SDS011;5855;48.840;9.188;2023-06-14T02:35:54;8.35;;;4.20;;
11598;SDS011;5855;48.840;9.188;2023-06-14T02:38:21;6.57;;;4.05;;
11598;SDS011;5855;48.840;9.188;2023-06-14T02:40:48;6.35;;;4.57;;
11598;SDS011;5855;48.840;9.188;2023-06-14T02:43:14;5.28;;;4.07;;
11598;SDS011;5855;48.840;9.188;2023-06-14T02:48:33;6.32;;;4.40;;
11598;SDS011;5855;48.840;9.188;2023-06-14T02:51:00;6.10;;;4.35;;
11598;SDS011;5855;48.840;9.188;2023-06-14T02:53:26;8.40;;;4.60;;
11598;SDS011;5855;48.840;9.188;2023-06-14T02:55:53;5.95;;;4.13;;
11598;SDS011;5855;48.840;9.188;2023-06-14T02:58:20;6.47;;;4.68;;
11598;SDS011;5855;48.840;9.188;2023-06-14T03:00:50;6.97;;;4.10;;
11598;SDS011;5855;48.840;9.188;2023-06-14T03:03:18;5.32;;;4.30;;
11598;SDS011;5855;48.840;9.188;2023-06-14T03:05:49;4.88;;;4.30;;
11598;SDS011;5855;48.840;9.188;2023-06-14T03:08:16;4.65;;;4.13;;
11598;SDS011;5855;48.840;9.188;2023-06-14T03:10:45;6.53;;;3.97;;
11598;SDS011;5855;48.840;9.188;2023-06-14T03:13:12;4.50;;;4.10;;
11598;SDS011;5855;48.840;9.188;2023-06-14T03:15:39;5.90;;;4.65;;
11598;SDS011;5855;48.840;9.188;2023-06-14T03:18:07;6.10;;;4.57;;
11598;SDS011;5855;48.840;9.188;2023-06-14T03:20:34;5.65;;;4.53;;
11598;SDS011;5855;48.840;9.188;2023-06-14T03:23:02;6.22;;;4.53;;
11598;SDS011;5855;48.840;9.188;2023-06-14T03:25:30;6.45;;;4.90;;
11598;SDS011;5855;48.840;9.188;2023-06-14T03:28:00;7.93;;;4.57;;
11598;SDS011;5855;48.840;9.188;2023-06-14T03:30:27;5.78;;;4.43;;
11598;SDS011;5855;48.840;9.188;2023-06-14T03:32:55;4.90;;;4.40;;
11598;SDS011;5855;48.840;9.188;2023-06-14T03:35:22;8.30;;;5.07;;
11598;SDS011;5855;48.840;9.188;2023-06-14T03:37:49;6.65;;;4.18;;
11598;SDS011;5855;48.840;9.188;2023-06-14T03:40:18;4.30;;;3.85;;
11598;SDS011;5855;48.840;9.188;2023-06-14T03:42:46;5.13;;;4.35;;
11598;SDS011;5855;48.840;9.188;2023-06-14T03:45:13;7.00;;;4.90;;
11598;SDS011;5855;48.840;9.188;2023-06-14T03:47:40;5.72;;;4.25;;
11598;SDS011;5855;48.840;9.188;2023-06-14T03:50:07;6.28;;;4.97;;
11598;SDS011;5855;48.840;9.188;2023-06-14T03:52:34;6.93;;;4.47;;
11598;SDS011;5855;48.840;9.188;2023-06-14T03:55:01;7.40;;;4.30;;
11598;SDS011;5855;48.840;9.188;2023-06-14T03:57:30;8.32;;;4.90;;
11598;SDS011;5855;48.840;9.188;2023-06-14T03:59:57;6.40;;;5.03;;
11598;SDS011;5855;48.840;9.188;2023-06-14T04:02:24;6.80;;;4.75;;
11598;SDS011;5855;48.840;9.188;2023-06-14T04:04:53;5.65;;;4.43;;
11598;SDS011;5855;48.840;9.188;2023-06-14T04:07:20;7.45;;;4.68;;
11598;SDS011;5855;48.840;9.188;2023-06-14T04:09:48;6.80;;;4.53;;
11598;SDS011;5855;48.840;9.188;2023-06-14T04:12:15;9.63;;;5.07;;
11598;SDS011;5855;48.840;9.188;2023-06-14T04:14:43;7.13;;;4.85;;
11598;SDS011;5855;48.840;9.188;2023-06-14T04:17:10;8.80;;;5.28;;
11598;SDS011;5855;48.840;9.188;2023-06-14T04:19:37;5.47;;;4.68;;
11598;SDS011;5855;48.840;9.188;2023-06-14T04:22:04;7.53;;;5.13;;
11598;SDS011;5855;48.840;9.188;2023-06-14T04:24:31;6.43;;;4.97;;
11598;SDS011;5855;48.840;9.188;2023-06-14T04:27:00;6.80;;;4.85;;
11598;SDS011;5855;48.840;9.188;2023-06-14T04:29:27;8.85;;;5.30;;
11598;SDS011;5855;48.840;9.188;2023-06-14T04:31:56;7.97;;;4.90;;
11598;SDS011;5855;48.840;9.188;2023-06-14T04:34:25;13.10;;;5.30;;
11598;SDS011;5855;48.840;9.188;2023-06-14T04:36:54;6.57;;;4.75;;
11598;SDS011;5855;48.840;9.188;2023-06-14T04:39:22;6.05;;;5.00;;
11598;SDS011;5855;48.840;9.188;2023-06-14T04:41:50;5.63;;;4.72;;
11598;SDS011;5855;48.840;9.188;2023-06-14T04:44:22;5.35;;;4.45;;
11598;SDS011;5855;48.840;9.188;2023-06-14T04:46:56;6.90;;;4.60;;
11598;SDS011;5855;48.840;9.188;2023-06-14T04:49:23;7.18;;;4.80;;
11598;SDS011;5855;48.840;9.188;2023-06-14T04:51:52;6.22;;;4.63;;
11598;SDS011;5855;48.840;9.188;2023-06-14T04:54:24;7.38;;;4.97;;
11598;SDS011;5855;48.840;9.188;2023-06-14T04:56:51;6.57;;;4.70;;
11598;SDS011;5855;48.840;9.188;2023-06-14T04:59:20;6.32;;;4.28;;
11598;SDS011;5855;48.840;9.188;2023-06-14T05:01:48;7.43;;;5.00;;
11598;SDS011;5855;48.840;9.188;2023-06-14T05:04:16;6.80;;;5.10;;
11598;SDS011;5855;48.840;9.188;2023-06-14T05:06:43;8.25;;;5.15;;
11598;SDS011;5855;48.840;9.188;2023-06-14T05:09:14;7.30;;;4.95;;
11598;SDS011;5855;48.840;9.188;2023-06-14T05:11:42;6.75;;;5.07;;
11598;SDS011;5855;48.840;9.188;2023-06-14T05:14:09;7.60;;;4.88;;
11598;SDS011;5855;48.840;9.188;2023-06-14T05:16:36;7.25;;;5.03;;
11598;SDS011;5855;48.840;9.188;2023-06-14T05:19:04;9.20;;;5.15;;
11598;SDS011;5855;48.840;9.188;2023-06-14T05:21:32;6.13;;;4.47;;
11598;SDS011;5855;48.840;9.188;2023-06-14T05:23:59;11.68;;;5.50;;
11598;SDS011;5855;48.840;9.188;2023-06-14T05:26:26;10.52;;;5.00;;
11598;SDS011;5855;48.840;9.188;2023-06-14T05:28:54;9.27;;;4.95;;
11598;SDS011;5855;48.840;9.188;2023-06-14T05:31:21;9.18;;;5.15;;
11598;SDS011;5855;48.840;9.188;2023-06-14T05:33:49;10.43;;;4.85;;
11598;SDS011;5855;48.840;9.188;2023-06-14T05:36:16;10.90;;;5.50;;
11598;SDS011;5855;48.840;9.188;2023-06-14T05:38:44;7.28;;;4.88;;
11598;SDS011;5855;48.840;9.188;2023-06-14T05:41:12;7.45;;;4.68;;
11598;SDS011;5855;48.840;9.188;2023-06-14T05:43:39;7.90;;;5.13;;
11598;SDS011;5855;48.840;9.188;2023-06-14T05:46:05;11.55;;;5.03;;
11598;SDS011;5855;48.840;9.188;2023-06-14T05:48:32;10.23;;;5.13;;
11598;SDS011;5855;48.840;9.188;2023-06-14T05:50:59;8.07;;;4.55;;
11598;SDS011;5855;48.840;9.188;2023-06-14T05:53:26;8.25;;;4.85;;
11598;SDS011;5855;48.840;9.188;2023-06-14T05:55:54;7.13;;;4.43;;
11598;SDS011;5855;48.840;9.188;2023-06-14T05:58:21;8.13;;;5.10;;
11598;SDS011;5855;48.840;9.188;2023-06-14T06:00:48;9.73;;;4.97;;
11598;SDS011;5855;48.840;9.188;2023-06-14T06:03:15;8.65;;;4.70;;
11598;SDS011;5855;48.840;9.188;2023-06-14T06:05:42;8.23;;;4.43;;
11598;SDS011;5855;48.840;9.188;2023-06-14T06:08:09;7.20;;;4.45;;
11598;SDS011;5855;48.840;9.188;2023-06-14T06:10:36;6.30;;;4.20;;
11598;SDS011;5855;48.840;9.188;2023-06-14T06:13:04;5.03;;;4.53;;
11598;SDS011;5855;48.840;9.188;2023-06-14T06:15:31;4.72;;;4.20;;
11598;SDS011;5855;48.840;9.188;2023-06-14T06:17:58;6.90;;;3.97;;
11598;SDS011;5855;48.840;9.188;2023-06-14T06:20:25;4.47;;;3.80;;
11598;SDS011;5855;48.840;9.188;2023-06-14T06:22:53;6.88;;;3.72;;
11598;SDS011;5855;48.840;9.188;2023-06-14T06:25:20;6.05;;;3.78;;
11598;SDS011;5855;48.840;9.188;2023-06-14T06:27:51;7.93;;;4.07;;
11598;SDS011;5855;48.840;9.188;2023-06-14T06:30:19;6.20;;;4.00;;
11598;SDS011;5855;48.840;9.188;2023-06-14T06:32:46;4.60;;;3.80;;
11598;SDS011;5855;48.840;9.188;2023-06-14T06:35:13;6.90;;;3.50;;
11598;SDS011;5855;48.840;9.188;2023-06-14T06:37:41;5.57;;;3.50;;
11598;SDS011;5855;48.840;9.188;2023-06-14T06:40:08;5.13;;;3.88;;
11598;SDS011;5855;48.840;9.188;2023-06-14T06:42:35;4.95;;;3.90;;
11598;SDS011;5855;48.840;9.188;2023-06-14T06:45:02;6.22;;;3.75;;
11598;SDS011;5855;48.840;9.188;2023-06-14T06:47:31;8.10;;;3.65;;
11598;SDS011;5855;48.840;9.188;2023-06-14T06:49:58;5.53;;;3.72;;
11598;SDS011;5855;48.840;9.188;2023-06-14T06:52:25;5.57;;;3.67;;
11598;SDS011;5855;48.840;9.188;2023-06-14T06:54:52;8.60;;;3.90;;
11598;SDS011;5855;48.840;9.188;2023-06-14T06:57:20;3.90;;;3.50;;
11598;SDS011;5855;48.840;9.188;2023-06-14T06:59:47;6.35;;;3.72;;
11598;SDS011;5855;48.840;9.188;2023-06-14T07:02:14;8.13;;;4.45;;
11598;SDS011;5855;48.840;9.188;2023-06-14T07:04:42;6.72;;;4.40;;
11598;SDS011;5855;48.840;9.188;2023-06-14T07:07:09;5.40;;;3.92;;
11598;SDS011;5855;48.840;9.188;2023-06-14T07:09:36;5.68;;;3.70;;
11598;SDS011;5855;48.840;9.188;2023-06-14T07:12:03;6.25;;;4.03;;
11598;SDS011;5855;48.840;9.188;2023-06-14T07:14:31;7.53;;;4.15;;
11598;SDS011;5855;48.840;9.188;2023-06-14T07:16:58;4.80;;;3.35;;
11598;SDS011;5855;48.840;9.188;2023-06-14T07:19:25;5.93;;;4.05;;
11598;SDS011;5855;48.840;9.188;2023-06-14T07:21:53;7.45;;;3.80;;
11598;SDS011;5855;48.840;9.188;2023-06-14T07:24:20;4.10;;;3.35;;
11598;SDS011;5855;48.840;9.188;2023-06-14T07:26:47;6.40;;;3.90;;
11598;SDS011;5855;48.840;9.188;2023-06-14T07:29:14;6.70;;;3.90;;
11598;SDS011;5855;48.840;9.188;2023-06-14T07:31:41;4.93;;;3.65;;
11598;SDS011;5855;48.840;9.188;2023-06-14T07:34:09;4.90;;;3.83;;
11598;SDS011;5855;48.840;9.188;2023-06-14T07:36:35;11.55;;;4.03;;
11598;SDS011;5855;48.840;9.188;2023-06-14T07:39:04;7.28;;;3.75;;
11598;SDS011;5855;48.840;9.188;2023-06-14T07:41:31;8.77;;;3.85;;
11598;SDS011;5855;48.840;9.188;2023-06-14T07:43:58;8.05;;;4.32;;
11598;SDS011;5855;48.840;9.188;2023-06-14T07:46:25;7.80;;;4.20;;
11598;SDS011;5855;48.840;9.188;2023-06-14T07:48:52;7.78;;;3.60;;
11598;SDS011;5855;48.840;9.188;2023-06-14T07:51:19;7.72;;;4.47;;
11598;SDS011;5855;48.840;9.188;2023-06-14T07:53:47;9.13;;;3.95;;
11598;SDS011;5855;48.840;9.188;2023-06-14T07:56:15;8.60;;;4.63;;
11598;SDS011;5855;48.840;9.188;2023-06-14T07:58:42;5.90;;;3.83;;
11598;SDS011;5855;48.840;9.188;2023-06-14T08:01:09;8.07;;;4.20;;
11598;SDS011;5855;48.840;9.188;2023-06-14T08:03:36;4.55;;;3.70;;
11598;SDS011;5855;48.840;9.188;2023-06-14T08:06:03;4.30;;;3.67;;
11598;SDS011;5855;48.840;9.188;2023-06-14T08:08:31;7.30;;;3.65;;
11598;SDS011;5855;48.840;9.188;2023-06-14T08:10:57;8.85;;;3.80;;
11598;SDS011;5855;48.840;9.188;2023-06-14T08:13:26;6.07;;;3.95;;
11598;SDS011;5855;48.840;9.188;2023-06-14T08:15:52;7.53;;;3.78;;
11598;SDS011;5855;48.840;9.188;2023-06-14T08:18:20;6.13;;;3.67;;
11598;SDS011;5855;48.840;9.188;2023-06-14T08:20:47;9.55;;;3.25;;
11598;SDS011;5855;48.840;9.188;2023-06-14T08:23:15;6.53;;;3.67;;
11598;SDS011;5855;48.840;9.188;2023-06-14T08:25:44;5.10;;;3.60;;
11598;SDS011;5855;48.840;9.188;2023-06-14T08:28:10;5.30;;;3.47;;
11598;SDS011;5855;48.840;9.188;2023-06-14T08:30:39;7.57;;;4.03;;
11598;SDS011;5855;48.840;9.188;2023-06-14T08:33:05;5.05;;;3.42;;
11598;SDS011;5855;48.840;9.188;2023-06-14T08:35:32;5.15;;;3.65;;
11598;SDS011;5855;48.840;9.188;2023-06-14T08:38:02;6.47;;;3.63;;
11598;SDS011;5855;48.840;9.188;2023-06-14T08:40:29;4.60;;;3.80;;
11598;SDS011;5855;48.840;9.188;2023-06-14T08:42:57;6.82;;;3.40;;
11598;SDS011;5855;48.840;9.188;2023-06-14T08:45:24;6.93;;;3.40;;
11598;SDS011;5855;48.840;9.188;2023-06-14T08:47:52;6.55;;;3.55;;
11598;SDS011;5855;48.840;9.188;2023-06-14T08:50:23;7.72;;;3.90;;
11598;SDS011;5855;48.840;9.188;2023-06-14T08:52:55;5.90;;;3.45;;
11598;SDS011;5855;48.840;9.188;2023-06-14T08:55:25;4.10;;;3.70;;
11598;SDS011;5855;48.840;9.188;2023-06-14T08:57:54;5.35;;;3.60;;
11598;SDS011;5855;48.840;9.188;2023-06-14T09:00:22;7.50;;;3.40;;
11598;SDS011;5855;48.840;9.188;2023-06-14T09:02:50;6.47;;;3.55;;
11598;SDS011;5855;48.840;9.188;2023-06-14T09:05:22;3.80;;;3.45;;
11598;SDS011;5855;48.840;9.188;2023-06-14T09:07:49;5.25;;;3.65;;
11598;SDS011;5855;48.840;9.188;2023-06-14T09:10:19;8.15;;;3.90;;
11598;SDS011;5855;48.840;9.188;2023-06-14T09:12:47;8.27;;;3.70;;
11598;SDS011;5855;48.840;9.188;2023-06-14T09:15:14;4.05;;;3.63;;
11598;SDS011;5855;48.840;9.188;2023-06-14T09:17:42;4.10;;;3.40;;
11598;SDS011;5855;48.840;9.188;2023-06-14T09:20:09;4.50;;;3.30;;
11598;SDS011;5855;48.840;9.188;2023-06-14T09:22:40;4.00;;;3.58;;
11598;SDS011;5855;48.840;9.188;2023-06-14T09:25:07;7.80;;;3.78;;
11598;SDS011;5855;48.840;9.188;2023-06-14T09:27:34;4.00;;;3.25;;
11598;SDS011;5855;48.840;9.188;2023-06-14T09:30:05;4.00;;;3.40;;
11598;SDS011;5855;48.840;9.188;2023-06-14T09:32:35;6.78;;;3.42;;
11598;SDS011;5855;48.840;9.188;2023-06-14T09:35:03;5.90;;;3.30;;
11598;SDS011;5855;48.840;9.188;2023-06-14T09:37:32;6.22;;;3.70;;
11598;SDS011;5855;48.840;9.188;2023-06-14T09:40:01;6.15;;;3.70;;
11598;SDS011;5855;48.840;9.188;2023-06-14T09:42:32;4.30;;;3.90;;
11598;SDS011;5855;48.840;9.188;2023-06-14T09:45:00;4.47;;;3.55;;
11598;SDS011;5855;48.840;9.188;2023-06-14T09:47:30;6.13;;;3.70;;
11598;SDS011;5855;48.840;9.188;2023-06-14T09:49:57;4.82;;;3.38;;
11598;SDS011;5855;48.840;9.188;2023-06-14T09:52:25;7.90;;;3.35;;
11598;SDS011;5855;48.840;9.188;2023-06-14T09:54:53;4.32;;;3.20;;
11598;SDS011;5855;48.840;9.188;2023-06-14T09:57:23;6.72;;;3.40;;
11598;SDS011;5855;48.840;9.188;2023-06-14T09:59:52;5.20;;;3.03;;
11598;SDS011;5855;48.840;9.188;2023-06-14T10:02:24;3.92;;;3.15;;
11598;SDS011;5855;48.840;9.188;2023-06-14T10:04:55;4.90;;;3.08;;
11598;SDS011;5855;48.840;9.188;2023-06-14T10:07:25;6.35;;;2.95;;
11598;SDS011;5855;48.840;9.188;2023-06-14T10:09:56;4.13;;;3.13;;
11598;SDS011;5855;48.840;9.188;2023-06-14T10:12:24;6.00;;;3.20;;
11598;SDS011;5855;48.840;9.188;2023-06-14T10:14:52;6.35;;;3.45;;
11598;SDS011;5855;48.840;9.188;2023-06-14T10:17:22;5.07;;;2.92;;
11598;SDS011;5855;48.840;9.188;2023-06-14T10:20:02;5.63;;;2.85;;
11598;SDS011;5855;48.840;9.188;2023-06-14T10:22:38;6.00;;;2.97;;
11598;SDS011;5855;48.840;9.188;2023-06-14T10:25:12;4.47;;;3.17;;
11598;SDS011;5855;48.840;9.188;2023-06-14T10:27:53;4.50;;;2.90;;
11598;SDS011;5855;48.840;9.188;2023-06-14T10:30:29;4.38;;;2.70;;
11598;SDS011;5855;48.840;9.188;2023-06-14T10:33:04;5.25;;;2.97;;
11598;SDS011;5855;48.840;9.188;2023-06-14T10:35:32;5.68;;;3.00;;
11598;SDS011;5855;48.840;9.188;2023-06-14T10:38:09;3.47;;;3.03;;
11598;SDS011;5855;48.840;9.188;2023-06-14T10:40:37;4.43;;;2.60;;
11598;SDS011;5855;48.840;9.188;2023-06-14T10:43:22;5.00;;;2.78;;
11598;SDS011;5855;48.840;9.188;2023-06-14T10:48:42;3.00;;;2.70;;
11598;SDS011;5855;48.840;9.188;2023-06-14T10:51:15;3.33;;;2.70;;
11598;SDS011;5855;48.840;9.188;2023-06-14T10:53:45;5.38;;;2.80;;
11598;SDS011;5855;48.840;9.188;2023-06-14T10:56:23;5.57;;;2.95;;
11598;SDS011;5855;48.840;9.188;2023-06-14T10:58:54;5.75;;;2.80;;
11598;SDS011;5855;48.840;9.188;2023-06-14T11:01:25;4.78;;;2.38;;
11598;SDS011;5855;48.840;9.188;2023-06-14T11:04:06;7.93;;;3.13;;
11598;SDS011;5855;48.840;9.188;2023-06-14T11:06:39;4.05;;;2.75;;
11598;SDS011;5855;48.840;9.188;2023-06-14T11:09:24;4.55;;;2.78;;
11598;SDS011;5855;48.840;9.188;2023-06-14T11:12:24;3.00;;;2.70;;
11598;SDS011;5855;48.840;9.188;2023-06-14T11:14:55;4.28;;;2.50;;
11598;SDS011;5855;48.840;9.188;2023-06-14T11:17:22;7.55;;;2.80;;
11598;SDS011;5855;48.840;9.188;2023-06-14T11:19:49;3.75;;;2.38;;
11598;SDS011;5855;48.840;9.188;2023-06-14T11:22:16;3.58;;;2.38;;
11598;SDS011;5855;48.840;9.188;2023-06-14T11:24:43;3.40;;;2.80;;
11598;SDS011;5855;48.840;9.188;2023-06-14T11:27:10;4.20;;;3.03;;
11598;SDS011;5855;48.840;9.188;2023-06-14T11:29:37;3.20;;;2.60;;
11598;SDS011;5855;48.840;9.188;2023-06-14T11:32:07;2.83;;;2.63;;
11598;SDS011;5855;48.840;9.188;2023-06-14T11:34:37;3.90;;;2.50;;
11598;SDS011;5855;48.840;9.188;2023-06-14T11:37:04;4.65;;;2.70;;
11598;SDS011;5855;48.840;9.188;2023-06-14T11:39:31;4.82;;;2.50;;
11598;SDS011;5855;48.840;9.188;2023-06-14T11:41:58;4.85;;;2.30;;
11598;SDS011;5855;48.840;9.188;2023-06-14T11:44:26;5.70;;;2.70;;
11598;SDS011;5855;48.840;9.188;2023-06-14T11:46:54;2.60;;;2.40;;
11598;SDS011;5855;48.840;9.188;2023-06-14T11:49:23;5.82;;;2.50;;
11598;SDS011;5855;48.840;9.188;2023-06-14T11:51:52;4.38;;;2.60;;
11598;SDS011;5855;48.840;9.188;2023-06-14T11:54:20;2.40;;;2.10;;
11598;SDS011;5855;48.840;9.188;2023-06-14T11:56:47;3.42;;;2.50;;
11598;SDS011;5855;48.840;9.188;2023-06-14T11:59:14;2.40;;;2.20;;
11598;SDS011;5855;48.840;9.188;2023-06-14T12:01:42;4.60;;;2.80;;
11598;SDS011;5855;48.840;9.188;2023-06-14T12:04:10;4.85;;;2.30;;
11598;SDS011;5855;48.840;9.188;2023-06-14T12:06:38;3.42;;;2.42;;
11598;SDS011;5855;48.840;9.188;2023-06-14T12:09:06;3.97;;;2.35;;
11598;SDS011;5855;48.840;9.188;2023-06-14T12:11:38;3.53;;;2.40;;
11598;SDS011;5855;48.840;9.188;2023-06-14T12:14:05;4.40;;;2.25;;
11598;SDS011;5855;48.840;9.188;2023-06-14T12:16:34;3.03;;;2.00;;
11598;SDS011;5855;48.840;9.188;2023-06-14T12:19:12;3.72;;;2.20;;
11598;SDS011;5855;48.840;9.188;2023-06-14T12:21:41;5.10;;;2.22;;
11598;SDS011;5855;48.840;9.188;2023-06-14T12:24:09;2.63;;;2.00;;
11598;SDS011;5855;48.840;9.188;2023-06-14T12:26:41;2.70;;;2.30;;
11598;SDS011;5855;48.840;9.188;2023-06-14T12:29:08;2.20;;;2.00;;
11598;SDS011;5855;48.840;9.188;2023-06-14T12:31:37;3.40;;;2.25;;
11598;SDS011;5855;48.840;9.188;2023-06-14T12:34:04;3.13;;;2.42;;
11598;SDS011;5855;48.840;9.188;2023-06-14T12:36:34;2.78;;;2.20;;
11598;SDS011;5855;48.840;9.188;2023-06-14T12:39:08;2.60;;;2.40;;
11598;SDS011;5855;48.840;9.188;2023-06-14T12:41:35;3.97;;;2.33;;
11598;SDS011;5855;48.840;9.188;2023-06-14T12:44:02;2.75;;;2.17;;
11598;SDS011;5855;48.840;9.188;2023-06-14T12:46:30;2.45;;;2.10;;
11598;SDS011;5855;48.840;9.188;2023-06-14T12:48:57;3.53;;;1.98;;
11598;SDS011;5855;48.840;9.188;2023-06-14T12:51:24;2.13;;;1.90;;
11598;SDS011;5855;48.840;9.188;2023-06-14T12:53:51;2.50;;;2.05;;
11598;SDS011;5855;48.840;9.188;2023-06-14T12:56:19;4.05;;;2.13;;
11598;SDS011;5855;48.840;9.188;2023-06-14T12:58:46;3.17;;;2.40;;
11598;SDS011;5855;48.840;9.188;2023-06-14T13:01:12;3.30;;;2.17;;
11598;SDS011;5855;48.840;9.188;2023-06-14T13:03:39;2.63;;;2.03;;
11598;SDS011;5855;48.840;9.188;2023-06-14T13:06:06;5.40;;;2.08;;
11598;SDS011;5855;48.840;9.188;2023-06-14T13:08:33;2.10;;;1.90;;
11598;SDS011;5855;48.840;9.188;2023-06-14T13:11:00;4.38;;;2.00;;
11598;SDS011;5855;48.840;9.188;2023-06-14T13:13:28;2.65;;;2.08;;
11598;SDS011;5855;48.840;9.188;2023-06-14T13:15:55;2.78;;;1.83;;
11598;SDS011;5855;48.840;9.188;2023-06-14T13:18:22;2.90;;;1.90;;
11598;SDS011;5855;48.840;9.188;2023-06-14T13:20:48;3.53;;;2.17;;
11598;SDS011;5855;48.840;9.188;2023-06-14T13:23:16;2.83;;;1.80;;
11598;SDS011;5855;48.840;9.188;2023-06-14T13:25:43;2.80;;;1.52;;
11598;SDS011;5855;48.840;9.188;2023-06-14T13:28:10;3.08;;;1.80;;
11598;SDS011;5855;48.840;9.188;2023-06-14T13:30:38;4.30;;;2.10;;
11598;SDS011;5855;48.840;9.188;2023-06-14T13:33:05;4.90;;;1.90;;
11598;SDS011;5855;48.840;9.188;2023-06-14T13:35:32;3.00;;;1.80;;
11598;SDS011;5855;48.840;9.188;2023-06-14T13:37:59;2.22;;;2.03;;
11598;SDS011;5855;48.840;9.188;2023-06-14T13:40:26;2.17;;;1.90;;
11598;SDS011;5855;48.840;9.188;2023-06-14T13:42:53;2.40;;;1.90;;
11598;SDS011;5855;48.840;9.188;2023-06-14T13:45:22;1.90;;;1.80;;
11598;SDS011;5855;48.840;9.188;2023-06-14T13:47:50;2.85;;;1.88;;
11598;SDS011;5855;48.840;9.188;2023-06-14T13:50:18;2.85;;;2.05;;
11598;SDS011;5855;48.840;9.188;2023-06-14T13:52:45;3.40;;;1.88;;
11598;SDS011;5855;48.840;9.188;2023-06-14T13:55:12;2.45;;;1.90;;
11598;SDS011;5855;48.840;9.188;2023-06-14T13:57:39;4.30;;;2.13;;
11598;SDS011;5855;48.840;9.188;2023-06-14T14:00:06;3.00;;;2.20;;
11598;SDS011;5855;48.840;9.188;2023-06-14T14:02:34;2.40;;;2.00;;
11598;SDS011;5855;48.840;9.188;2023-06-14T14:05:03;2.67;;;2.10;;
11598;SDS011;5855;48.840;9.188;2023-06-14T14:07:30;2.63;;;2.00;;
11598;SDS011;5855;48.840;9.188;2023-06-14T14:09:57;3.83;;;2.10;;
11598;SDS011;5855;48.840;9.188;2023-06-14T14:12:24;2.38;;;1.92;;
11598;SDS011;5855;48.840;9.188;2023-06-14T14:14:50;2.50;;;2.17;;
11598;SDS011;5855;48.840;9.188;2023-06-14T14:17:17;5.20;;;2.10;;
11598;SDS011;5855;48.840;9.188;2023-06-14T14:19:44;2.70;;;1.90;;
11598;SDS011;5855;48.840;9.188;2023-06-14T14:22:12;3.45;;;2.10;;
11598;SDS011;5855;48.840;9.188;2023-06-14T14:24:39;3.13;;;1.80;;
11598;SDS011;5855;48.840;9.188;2023-06-14T14:27:12;2.15;;;1.80;;
11598;SDS011;5855;48.840;9.188;2023-06-14T14:29:42;2.22;;;1.90;;
11598;SDS011;5855;48.840;9.188;2023-06-14T14:32:08;4.47;;;1.70;;
11598;SDS011;5855;48.840;9.188;2023-06-14T14:34:38;1.60;;;1.50;;
11598;SDS011;5855;48.840;9.188;2023-06-14T14:37:05;2.03;;;1.67;;
11598;SDS011;5855;48.840;9.188;2023-06-14T14:39:33;3.00;;;1.73;;
11598;SDS011;5855;48.840;9.188;2023-06-14T14:42:01;1.98;;;1.60;;
11598;SDS011;5855;48.840;9.188;2023-06-14T14:44:28;2.47;;;1.73;;
11598;SDS011;5855;48.840;9.188;2023-06-14T14:49:40;6.82;;;2.20;;
11598;SDS011;5855;48.840;9.188;2023-06-14T14:52:07;5.03;;;2.00;;
11598;SDS011;5855;48.840;9.188;2023-06-14T14:54:36;3.50;;;1.83;;
11598;SDS011;5855;48.840;9.188;2023-06-14T14:57:03;2.55;;;1.88;;
11598;SDS011;5855;48.840;9.188;2023-06-14T14:59:30;3.05;;;1.98;;
11598;SDS011;5855;48.840;9.188;2023-06-14T15:01:57;4.53;;;1.95;;
11598;SDS011;5855;48.840;9.188;2023-06-14T15:04:23;3.58;;;2.30;;
11598;SDS011;5855;48.840;9.188;2023-06-14T15:06:50;3.50;;;3.03;;
11598;SDS011;5855;48.840;9.188;2023-06-14T15:09:17;2.85;;;2.30;;
11598;SDS011;5855;48.840;9.188;2023-06-14T15:11:45;4.93;;;2.03;;
11598;SDS011;5855;48.840;9.188;2023-06-14T15:14:12;2.38;;;2.17;;